Time;durP1;ratioP1;P1;durP2;ratioP2;P2;SDS_P1;SDS_P2;PMS_P1;PMS_P2;Temp;Humidity;BMP_temperature;BMP_pressure;BME280_temperature;BME280_humidity;BME280_pressure;Samples;Min_cycle;Max_cycle;Signal;HPM_P1;HPM_P2
2022/11/25 00:01:24;;;;;;;49.63;32.00;;;4.80;1.00;;;;;;5081870;28;20250;-79
2022/11/25 00:03:55;;;;;;;50.83;32.75;;;4.80;1.00;;;;;;5077686;28;20244;-80
2022/11/25 00:06:31;;;;;;;51.80;35.88;;;4.90;1.00;;;;;;5084504;28;20231;-80
2022/11/25 00:09:04;;;;;;;48.42;32.88;;;5.00;1.00;;;;;;5069443;28;20228;-79
2022/11/25 00:11:35;;;;;;;54.05;33.75;;;4.90;1.00;;;;;;5082167;28;20242;-78
2022/11/25 00:14:03;;;;;;;52.92;33.88;;;4.90;1.00;;;;;;5085783;28;20260;-80
2022/11/25 00:16:32;;;;;;;47.95;31.25;;;4.90;1.00;;;;;;5085563;28;20232;-77
2022/11/25 00:19:03;;;;;;;49.75;32.63;;;4.90;1.00;;;;;;5088009;28;20234;-79
2022/11/25 00:21:34;;;;;;;49.42;32.25;;;5.00;1.00;;;;;;5081677;28;20225;-78
2022/11/25 00:24:08;;;;;;;49.47;34.20;;;5.00;1.00;;;;;;5087128;28;20272;-80
2022/11/25 00:26:42;;;;;;;50.40;32.15;;;5.00;1.00;;;;;;5079666;28;20235;-80
2022/11/25 00:29:20;;;;;;;52.25;32.22;;;4.90;1.00;;;;;;5080652;28;20232;-77
2022/11/25 00:31:49;;;;;;;44.30;32.10;;;4.90;1.00;;;;;;5074212;28;20265;-80
2022/11/25 00:34:23;;;;;;;47.67;32.17;;;4.90;1.00;;;;;;5070388;28;20306;-78
2022/11/25 00:36:55;;;;;;;47.55;31.83;;;5.00;1.00;;;;;;5067124;28;20239;-78
2022/11/25 00:39:25;;;;;;;47.03;29.52;;;4.90;1.00;;;;;;5064016;28;20541;-78
2022/11/25 00:44:41;;;;;;;46.25;30.58;;;4.80;1.00;;;;;;5069437;28;20239;-79
2022/11/25 00:47:14;;;;;;;42.47;29.10;;;4.90;1.00;;;;;;5078527;28;20287;-79
2022/11/25 00:49:44;;;;;;;40.85;28.23;;;5.00;1.00;;;;;;5077871;28;20249;-78
2022/11/25 00:52:17;;;;;;;43.40;29.73;;;5.00;1.00;;;;;;5088258;28;20239;-79
2022/11/25 00:54:53;;;;;;;44.65;28.88;;;5.00;1.00;;;;;;5074047;28;20233;-78
2022/11/25 00:57:26;;;;;;;45.25;29.05;;;5.00;1.00;;;;;;5090257;28;20232;-78
2022/11/25 00:59:53;;;;;;;45.95;31.48;;;5.00;1.00;;;;;;5094386;28;20239;-77
2022/11/25 01:02:20;;;;;;;49.83;29.80;;;5.00;1.00;;;;;;5098567;28;20241;-80
2022/11/25 01:04:48;;;;;;;47.22;30.15;;;5.00;1.00;;;;;;5101850;28;20238;-78
2022/11/25 01:07:20;;;;;;;47.50;29.92;;;5.00;1.00;;;;;;5091900;28;21032;-78
2022/11/25 01:09:53;;;;;;;46.45;28.80;;;5.00;1.00;;;;;;5098065;28;20272;-78
2022/11/25 01:12:20;;;;;;;40.78;28.45;;;5.00;1.00;;;;;;5100072;28;21017;-80
2022/11/25 01:14:50;;;;;;;42.58;29.45;;;5.10;1.00;;;;;;5102735;28;20229;-79
2022/11/25 01:20:14;;;;;;;43.72;28.73;;;5.10;1.00;;;;;;5099101;28;20233;-80
2022/11/25 01:22:45;;;;;;;48.53;29.00;;;4.90;1.00;;;;;;5096631;28;20233;-79
2022/11/25 01:25:13;;;;;;;46.83;28.90;;;5.00;1.00;;;;;;5096241;28;20242;-79
2022/11/25 01:27:43;;;;;;;46.78;30.58;;;5.00;1.00;;;;;;5109149;28;20210;-79
2022/11/25 01:30:15;;;;;;;46.00;29.08;;;4.90;1.00;;;;;;5110658;28;20219;-79
2022/11/25 01:32:43;;;;;;;43.97;28.75;;;5.00;1.00;;;;;;5099739;28;20277;-78
2022/11/25 01:35:15;;;;;;;47.85;31.45;;;4.90;1.00;;;;;;5106644;28;20232;-79
2022/11/25 01:37:52;;;;;;;44.53;29.35;;;5.00;1.00;;;;;;5081753;28;20213;-78
2022/11/25 01:43:33;;;;;;;45.22;28.88;;;5.00;1.00;;;;;;5048005;28;20240;-78
2022/11/25 01:47:04;;;;;;;52.40;30.13;;;5.00;1.00;;;;;;5038584;28;20228;-80
2022/11/25 01:56:05;;;;;;;47.22;30.52;;;5.20;1.00;;;;;;5027003;28;20305;-81
2022/11/25 01:58:35;;;;;;;49.40;29.88;;;5.20;1.00;;;;;;5021076;28;20235;-79
2022/11/25 02:01:06;;;;;;;49.13;29.95;;;5.20;1.00;;;;;;5042521;28;20254;-77
2022/11/25 02:03:40;;;;;;;46.72;30.27;;;5.20;1.00;;;;;;5029246;28;20250;-78
2022/11/25 02:06:22;;;;;;;48.33;28.98;;;5.30;1.00;;;;;;5020301;28;20237;-80
2022/11/25 02:09:02;;;;;;;44.80;28.77;;;5.30;1.00;;;;;;5018696;28;20266;-76
2022/11/25 02:11:32;;;;;;;45.35;29.15;;;5.20;1.00;;;;;;5034085;28;20252;-77
2022/11/25 02:14:03;;;;;;;43.72;29.65;;;5.30;1.00;;;;;;5042204;28;20981;-77
2022/11/25 02:16:31;;;;;;;46.85;30.00;;;5.30;1.00;;;;;;5045897;28;20287;-77
2022/11/25 02:19:02;;;;;;;47.72;30.83;;;5.30;1.00;;;;;;5045704;28;20229;-77
2022/11/25 02:21:35;;;;;;;47.20;30.25;;;5.20;1.00;;;;;;5042571;28;20210;-78
2022/11/25 02:24:12;;;;;;;45.72;30.23;;;5.10;1.00;;;;;;5047573;28;20237;-78
2022/11/25 02:26:44;;;;;;;44.65;30.25;;;5.10;1.00;;;;;;5035774;28;20246;-77
2022/11/25 02:29:13;;;;;;;44.25;29.25;;;5.10;1.00;;;;;;5037867;28;20230;-79
2022/11/25 02:31:44;;;;;;;53.38;34.50;;;5.10;1.00;;;;;;5044059;28;20218;-78
2022/11/25 02:34:13;;;;;;;53.38;33.42;;;5.10;1.00;;;;;;5037236;28;20307;-82
2022/11/25 02:36:49;;;;;;;66.63;39.55;;;5.00;1.00;;;;;;5044240;28;20240;-77
2022/11/25 02:39:22;;;;;;;48.80;29.15;;;5.00;1.00;;;;;;5042655;28;20240;-78
2022/11/25 02:41:58;;;;;;;43.65;29.90;;;5.10;1.00;;;;;;5045163;28;20371;-78
2022/11/25 02:44:25;;;;;;;52.33;32.35;;;5.00;1.00;;;;;;5042506;28;20235;-81
2022/11/25 02:46:55;;;;;;;45.60;29.45;;;4.90;1.00;;;;;;5092673;28;20231;-79
2022/11/25 02:49:25;;;;;;;48.45;32.35;;;4.90;1.00;;;;;;5102069;28;20247;-77
2022/11/25 02:51:58;;;;;;;48.08;30.05;;;5.00;1.00;;;;;;5097823;28;20222;-78
2022/11/25 02:54:25;;;;;;;40.22;27.63;;;5.10;1.00;;;;;;5099424;28;20238;-77
2022/11/25 02:56:54;;;;;;;50.53;32.30;;;5.10;1.00;;;;;;5104236;28;20313;-79
2022/11/25 02:59:23;;;;;;;53.30;33.08;;;5.00;1.00;;;;;;5100132;28;20708;-80
2022/11/25 03:01:53;;;;;;;54.65;31.45;;;4.80;1.00;;;;;;5105708;28;20938;-78
2022/11/25 03:04:23;;;;;;;46.67;31.80;;;4.80;1.00;;;;;;5105270;28;20238;-79
2022/11/25 03:06:52;;;;;;;53.53;32.40;;;4.80;1.00;;;;;;5104463;28;20299;-80
2022/11/25 03:09:25;;;;;;;53.20;32.75;;;4.90;1.00;;;;;;5100737;28;20805;-79
2022/11/25 03:14:44;;;;;;;57.63;31.08;;;5.00;1.00;;;;;;5103459;28;20237;-78
2022/11/25 03:17:12;;;;;;;53.72;33.22;;;5.10;1.00;;;;;;5104208;28;20243;-79
2022/11/25 03:19:45;;;;;;;59.70;32.97;;;5.10;1.00;;;;;;5103339;28;20256;-80
2022/11/25 03:22:13;;;;;;;59.72;34.35;;;5.20;1.00;;;;;;5101849;28;20229;-80
2022/11/25 03:24:49;;;;;;;58.60;34.42;;;5.20;1.00;;;;;;5098703;28;20256;-79
2022/11/25 03:27:22;;;;;;;59.35;34.45;;;5.20;1.00;;;;;;5099401;28;20238;-80
2022/11/25 03:29:53;;;;;;;54.92;32.50;;;5.10;1.00;;;;;;5104123;28;20240;-81
2022/11/25 03:32:23;;;;;;;55.50;35.63;;;5.20;1.00;;;;;;5106046;28;20227;-79
2022/11/25 03:34:51;;;;;;;56.95;32.45;;;5.20;1.00;;;;;;5102819;28;20229;-78
2022/11/25 03:37:23;;;;;;;53.53;31.90;;;5.20;1.00;;;;;;5101865;28;20243;-80
2022/11/25 03:40:03;;;;;;;62.22;36.10;;;5.20;1.00;;;;;;5101172;28;20232;-78
2022/11/25 03:42:35;;;;;;;53.42;31.67;;;5.10;1.00;;;;;;5104707;28;20349;-80
2022/11/25 03:45:04;;;;;;;60.70;32.72;;;5.10;1.00;;;;;;5102271;28;20245;-79
2022/11/25 03:47:33;;;;;;;61.45;34.88;;;5.00;1.00;;;;;;5103669;28;20261;-79
2022/11/25 03:50:05;;;;;;;60.55;35.35;;;4.90;1.00;;;;;;5095436;28;20233;-78
2022/11/25 03:52:35;;;;;;;69.47;36.85;;;4.90;1.00;;;;;;5100625;28;20246;-78
2022/11/25 03:55:04;;;;;;;57.03;34.55;;;4.90;1.00;;;;;;5101744;28;20291;-77
2022/11/25 03:57:43;;;;;;;61.67;34.92;;;4.90;1.00;;;;;;5092626;28;20236;-80
2022/11/25 04:00:13;;;;;;;62.42;34.08;;;4.90;1.00;;;;;;5101281;28;20234;-79
2022/11/25 04:02:43;;;;;;;58.42;34.65;;;4.80;1.00;;;;;;5097505;28;20259;-78
2022/11/25 04:05:13;;;;;;;59.17;32.70;;;5.00;1.00;;;;;;5101313;28;20295;-79
2022/11/25 04:07:44;;;;;;;63.40;34.47;;;5.00;1.00;;;;;;5080877;28;20236;-78
2022/11/25 04:10:13;;;;;;;64.95;35.15;;;5.00;1.00;;;;;;5104279;28;20237;-78
2022/11/25 04:12:47;;;;;;;66.00;35.88;;;4.80;1.00;;;;;;5100136;28;20776;-80
2022/11/25 04:15:14;;;;;;;72.93;36.28;;;4.70;1.00;;;;;;5090238;28;20295;-80
2022/11/25 04:18:04;;;;;;;64.70;36.97;;;4.80;1.00;;;;;;5089504;28;20260;-80
2022/11/25 04:20:34;;;;;;;62.85;36.17;;;4.70;1.00;;;;;;5104371;28;20237;-78
2022/11/25 04:23:01;;;;;;;67.20;37.25;;;4.70;1.00;;;;;;5094304;28;20764;-79
2022/11/25 04:25:43;;;;;;;61.38;37.58;;;4.70;1.00;;;;;;5098690;28;20241;-79
2022/11/25 04:28:16;;;;;;;70.63;37.05;;;4.90;1.00;;;;;;5106040;28;20237;-77
2022/11/25 04:30:46;;;;;;;56.65;34.13;;;4.90;1.00;;;;;;5072251;28;20242;-79
2022/11/25 04:33:13;;;;;;;54.05;33.25;;;4.90;1.00;;;;;;5110363;28;20243;-81
2022/11/25 04:35:44;;;;;;;57.92;32.22;;;4.90;1.00;;;;;;5108433;28;20232;-81
2022/11/25 04:38:14;;;;;;;50.75;32.72;;;5.00;1.00;;;;;;5100420;28;20242;-80
2022/11/25 04:40:42;;;;;;;59.05;34.33;;;5.10;1.00;;;;;;5097056;28;20304;-80
2022/11/25 04:43:12;;;;;;;54.58;33.70;;;5.10;1.00;;;;;;5096170;28;20705;-80
2022/11/25 04:45:42;;;;;;;58.63;36.22;;;5.00;1.00;;;;;;5080066;28;20694;-80
2022/11/25 04:48:09;;;;;;;64.43;44.47;;;5.10;1.00;;;;;;5106292;28;20286;-80
2022/11/25 04:50:36;;;;;;;62.47;37.03;;;5.10;1.00;;;;;;5101306;28;20295;-78
2022/11/25 04:53:04;;;;;;;57.20;32.70;;;5.00;1.00;;;;;;5100926;28;20244;-80
2022/11/25 04:55:45;;;;;;;60.72;33.88;;;4.90;1.00;;;;;;5105592;28;20241;-79
2022/11/25 04:59:38;;;;;;;57.42;37.55;;;5.10;1.00;;;;;;5096902;28;20241;-79
2022/11/25 05:01:02;;;;;;;52.28;33.78;;;5.00;1.00;;;;;;5096367;28;20242;-79
2022/11/25 05:03:33;;;;;;;63.67;36.22;;;5.00;1.00;;;;;;5091337;28;20212;-79
2022/11/25 05:06:16;;;;;;;53.67;31.65;;;5.00;1.00;;;;;;5095390;28;20231;-78
2022/11/25 05:08:43;;;;;;;51.22;31.75;;;5.10;1.00;;;;;;5094388;28;20779;-79
2022/11/25 05:11:13;;;;;;;51.47;34.90;;;5.10;1.00;;;;;;5087963;28;20248;-79
2022/11/25 05:13:53;;;;;;;51.25;31.67;;;5.00;1.00;;;;;;5100167;28;20224;-81
2022/11/25 05:16:23;;;;;;;58.50;35.17;;;5.10;1.00;;;;;;5092642;28;20237;-80
2022/11/25 05:18:56;;;;;;;87.05;51.55;;;5.10;1.00;;;;;;5112890;28;20229;-81
2022/11/25 05:21:45;;;;;;;65.95;38.33;;;5.10;1.00;;;;;;5084665;28;20255;-80
2022/11/25 05:24:16;;;;;;;53.45;35.75;;;5.10;1.00;;;;;;5082494;28;20238;-80
2022/11/25 05:26:43;;;;;;;65.78;35.25;;;5.20;1.00;;;;;;5092363;28;20300;-80
2022/11/25 05:29:15;;;;;;;58.63;35.90;;;5.20;1.00;;;;;;5084478;28;20912;-80
2022/11/25 05:31:45;;;;;;;56.35;32.22;;;5.20;1.00;;;;;;5105213;28;20250;-79
2022/11/25 05:34:13;;;;;;;63.13;35.13;;;5.20;1.00;;;;;;5101761;28;20707;-80
2022/11/25 05:36:43;;;;;;;59.70;34.90;;;5.30;1.00;;;;;;5107034;28;20249;-80
2022/11/25 05:39:15;;;;;;;60.83;33.63;;;5.30;1.00;;;;;;5096716;28;20272;-79
2022/11/25 05:41:44;;;;;;;55.60;33.60;;;5.30;1.00;;;;;;5103153;28;20227;-79
2022/11/25 05:44:17;;;;;;;57.15;32.10;;;5.30;1.00;;;;;;5101514;28;20218;-80
2022/11/25 05:46:47;;;;;;;62.97;34.33;;;5.30;1.00;;;;;;5074930;28;20242;-80
2022/11/25 05:49:22;;;;;;;52.90;31.70;;;5.30;1.00;;;;;;5090092;28;20245;-80
2022/11/25 05:51:54;;;;;;;54.10;31.10;;;5.40;1.00;;;;;;5105666;28;20233;-79
2022/11/25 05:54:23;;;;;;;45.38;28.92;;;5.50;1.00;;;;;;5104096;28;20284;-79
2022/11/25 05:56:53;;;;;;;52.30;31.95;;;5.60;1.00;;;;;;5101581;28;20250;-80
2022/11/25 05:59:25;;;;;;;48.38;28.40;;;5.50;1.00;;;;;;5104058;28;20241;-80
2022/11/25 06:01:54;;;;;;;53.78;34.63;;;5.50;1.00;;;;;;5093849;28;20231;-79
2022/11/25 06:04:23;;;;;;;44.63;29.48;;;5.50;1.00;;;;;;5105617;28;20221;-80
2022/11/25 06:06:53;;;;;;;43.85;28.85;;;5.60;1.00;;;;;;5108168;28;20222;-78
2022/11/25 06:09:22;;;;;;;50.85;34.22;;;5.60;1.00;;;;;;5103709;28;20239;-79
2022/11/25 06:12:05;;;;;;;42.80;29.20;;;5.60;1.00;;;;;;5088721;28;20235;-79
2022/11/25 06:14:53;;;;;;;60.60;31.05;;;5.50;1.00;;;;;;5102367;28;20655;-79
2022/11/25 06:17:26;;;;;;;53.28;30.02;;;5.50;1.00;;;;;;5105900;28;20222;-79
2022/11/25 06:19:55;;;;;;;45.75;29.23;;;5.50;1.00;;;;;;5105982;28;20232;-79
2022/11/25 06:22:30;;;;;;;52.83;32.95;;;5.60;1.00;;;;;;5083982;28;20237;-79
2022/11/25 06:25:04;;;;;;;51.03;29.70;;;5.60;1.00;;;;;;5092586;28;20243;-78
2022/11/25 06:27:41;;;;;;;48.00;30.15;;;5.60;1.00;;;;;;5090398;28;20229;-80
2022/11/25 06:30:15;;;;;;;46.45;31.00;;;5.70;1.00;;;;;;5085830;28;20251;-80
2022/11/25 06:32:44;;;;;;;48.35;32.88;;;5.70;1.00;;;;;;5100599;28;20245;-79
2022/11/25 06:35:16;;;;;;;44.28;30.27;;;5.60;1.00;;;;;;5105608;28;20225;-80
2022/11/25 06:37:48;;;;;;;49.55;31.65;;;5.60;1.00;;;;;;5076284;28;20235;-79
2022/11/25 06:40:16;;;;;;;45.67;28.90;;;5.60;1.00;;;;;;5086587;28;20233;-79
2022/11/25 06:42:44;;;;;;;48.42;30.95;;;5.60;1.00;;;;;;5090960;28;20234;-80
2022/11/25 06:45:33;;;;;;;46.25;27.60;;;5.50;1.00;;;;;;5078271;28;20291;-84
2022/11/25 06:48:07;;;;;;;40.20;27.30;;;5.40;1.00;;;;;;5100684;28;20232;-81
2022/11/25 06:50:45;;;;;;;47.63;27.33;;;5.40;1.00;;;;;;5087225;28;20278;-81
2022/11/25 06:53:16;;;;;;;45.40;28.98;;;5.40;1.00;;;;;;5097128;28;20236;-77
2022/11/25 06:55:45;;;;;;;41.58;26.65;;;5.30;1.00;;;;;;5105889;28;20229;-79
2022/11/25 06:58:14;;;;;;;43.22;27.25;;;5.30;1.00;;;;;;5092300;28;20384;-81
2022/11/25 07:01:07;;;;;;;51.35;31.20;;;5.30;1.00;;;;;;5103068;28;20238;-82
2022/11/25 07:03:36;;;;;;;47.50;28.98;;;5.40;1.00;;;;;;5101062;28;20265;-79
2022/11/25 07:06:05;;;;;;;47.50;28.95;;;5.40;1.00;;;;;;5096209;28;21070;-82
2022/11/25 07:08:34;;;;;;;47.65;28.17;;;5.40;1.00;;;;;;5094245;28;20236;-82
2022/11/25 07:11:06;;;;;;;40.42;26.02;;;5.30;1.00;;;;;;5071621;28;20230;-79
2022/11/25 07:13:35;;;;;;;39.00;24.98;;;5.30;1.00;;;;;;5090183;28;20397;-80
2022/11/25 07:16:09;;;;;;;44.65;28.40;;;5.30;1.00;;;;;;5092629;28;20239;-81
2022/11/25 07:18:39;;;;;;;50.58;27.67;;;5.20;1.00;;;;;;5081123;27;21176;-77
2022/11/25 07:21:15;;;;;;;52.75;26.60;;;5.20;1.00;;;;;;5080864;28;20239;-77
2022/11/25 07:23:44;;;;;;;63.63;31.88;;;5.20;1.00;;;;;;5078107;28;20295;-78
2022/11/25 07:26:13;;;;;;;52.25;27.23;;;5.10;1.00;;;;;;5089457;28;20245;-78
2022/11/25 07:28:42;;;;;;;109.88;35.25;;;5.10;1.00;;;;;;5081804;28;20253;-78
2022/11/25 07:31:15;;;;;;;71.25;30.83;;;5.10;1.00;;;;;;5079000;28;20704;-79
2022/11/25 07:33:43;;;;;;;58.17;28.70;;;5.10;1.00;;;;;;5092032;28;20233;-82
2022/11/25 07:36:12;;;;;;;80.80;29.98;;;5.10;1.00;;;;;;5092538;28;20235;-82
2022/11/25 07:38:41;;;;;;;52.83;30.25;;;5.10;1.00;;;;;;5097229;28;20229;-79
2022/11/25 07:41:12;;;;;;;110.82;29.92;;;5.10;1.00;;;;;;5096681;28;20556;-78
2022/11/25 07:43:40;;;;;;;94.32;34.80;;;5.10;1.00;;;;;;5092745;28;20778;-76
2022/11/25 07:46:13;;;;;;;125.65;34.17;;;4.90;1.00;;;;;;5092183;28;20234;-77
2022/11/25 07:48:41;;;;;;;109.80;30.10;;;4.90;1.00;;;;;;5092255;28;20233;-79
2022/11/25 07:51:15;;;;;;;135.15;32.72;;;4.80;1.00;;;;;;5093447;28;20272;-80
2022/11/25 07:53:42;;;;;;;101.57;30.85;;;4.80;1.00;;;;;;5088478;28;20242;-79
2022/11/25 07:56:11;;;;;;;58.20;26.20;;;4.90;1.00;;;;;;5101399;28;20221;-83
2022/11/25 07:58:38;;;;;;;83.75;29.00;;;4.90;1.00;;;;;;5101117;28;20240;-81
2022/11/25 08:01:07;;;;;;;119.93;32.72;;;4.90;1.00;;;;;;5098929;28;20241;-81
2022/11/25 08:03:40;;;;;;;74.20;33.50;;;4.90;1.00;;;;;;5091937;28;20312;-85
2022/11/25 08:06:13;;;;;;;83.57;31.40;;;5.00;1.00;;;;;;5091706;28;20253;-83
2022/11/25 08:08:41;;;;;;;120.88;33.97;;;5.10;1.00;;;;;;5078352;28;20241;-79
2022/11/25 08:11:13;;;;;;;130.07;35.08;;;5.00;1.00;;;;;;5091397;28;20270;-78
2022/11/25 08:13:40;;;;;;;56.45;28.05;;;4.90;1.00;;;;;;5097149;28;20234;-81
2022/11/25 08:16:12;;;;;;;90.50;30.60;;;5.00;1.00;;;;;;5104472;28;20218;-80
2022/11/25 08:18:41;;;;;;;60.63;27.83;;;5.00;1.00;;;;;;5100371;28;20267;-79
2022/11/25 08:21:13;;;;;;;61.67;27.45;;;5.00;1.00;;;;;;5104656;28;20240;-78
2022/11/25 08:23:42;;;;;;;52.50;28.08;;;5.10;1.00;;;;;;5107703;28;21112;-80
2022/11/25 08:26:12;;;;;;;80.50;30.30;;;5.20;1.00;;;;;;5092842;28;20306;-80
2022/11/25 08:28:41;;;;;;;69.53;27.92;;;5.30;1.00;;;;;;5097143;28;21006;-82
2022/11/25 08:31:13;;;;;;;59.88;27.48;;;5.40;1.00;;;;;;5096525;28;20966;-81
2022/11/25 08:33:43;;;;;;;61.75;29.05;;;5.40;1.00;;;;;;5101600;28;20226;-80
2022/11/25 08:36:12;;;;;;;89.28;28.27;;;5.60;1.00;;;;;;5101809;28;20242;-82
2022/11/25 08:38:45;;;;;;;92.30;31.33;;;5.60;1.00;;;;;;5080952;28;20234;-81
2022/11/25 08:41:23;;;;;;;66.15;28.15;;;5.50;1.00;;;;;;5102875;28;20237;-82
2022/11/25 08:43:50;;;;;;;71.30;27.33;;;5.60;1.00;;;;;;5103235;28;20737;-81
2022/11/25 08:46:26;;;;;;;57.15;26.33;;;5.70;1.00;;;;;;5098508;28;20276;-82
2022/11/25 08:49:06;;;;;;;52.65;27.73;;;5.80;1.00;;;;;;5107708;28;20288;-82
2022/11/25 08:51:40;;;;;;;62.75;27.25;;;5.80;1.00;;;;;;5099483;28;20290;-80
2022/11/25 08:54:08;;;;;;;63.42;26.05;;;5.80;1.00;;;;;;5097954;28;20240;-79
2022/11/25 08:56:42;;;;;;;51.55;24.55;;;5.80;1.00;;;;;;5099064;28;20242;-81
2022/11/25 08:59:12;;;;;;;59.67;27.48;;;5.90;1.00;;;;;;5103229;28;20238;-81
2022/11/25 09:01:43;;;;;;;49.42;24.70;;;5.90;1.00;;;;;;5101133;28;20276;-80
2022/11/25 09:04:12;;;;;;;80.07;27.60;;;5.90;1.00;;;;;;5101685;28;20238;-83
2022/11/25 09:06:44;;;;;;;57.95;25.55;;;5.90;1.00;;;;;;5101146;28;20368;-80
2022/11/25 09:09:11;;;;;;;52.83;26.13;;;6.00;1.00;;;;;;5100691;28;21106;-82
2022/11/25 09:11:41;;;;;;;54.35;25.40;;;6.20;1.00;;;;;;5102068;28;20255;-80
2022/11/25 09:14:08;;;;;;;54.03;29.08;;;6.20;1.00;;;;;;5105529;28;20227;-82
2022/11/25 09:16:35;;;;;;;43.17;27.05;;;6.20;1.00;;;;;;5103426;28;20221;-81
2022/11/25 09:19:03;;;;;;;57.67;26.92;;;6.20;1.00;;;;;;5103539;27;20232;-79
2022/11/25 09:21:32;;;;;;;61.35;26.20;;;6.20;1.00;;;;;;5106525;28;20213;-81
2022/11/25 09:24:01;;;;;;;40.22;25.55;;;6.30;1.00;;;;;;5101141;28;21080;-81
2022/11/25 09:26:34;;;;;;;52.58;26.30;;;6.50;1.00;;;;;;5098636;28;20229;-80
2022/11/25 09:29:01;;;;;;;64.55;26.48;;;6.60;1.00;;;;;;5105493;28;20325;-80
2022/11/25 09:31:31;;;;;;;46.38;25.98;;;6.70;1.00;;;;;;5108337;28;20231;-80
2022/11/25 09:33:59;;;;;;;43.55;24.90;;;6.70;1.00;;;;;;5110374;28;20228;-81
2022/11/25 09:36:33;;;;;;;46.38;26.30;;;6.70;1.00;;;;;;5106541;28;20230;-80
2022/11/25 09:39:00;;;;;;;60.13;28.10;;;6.70;1.00;;;;;;5104698;28;20250;-81
2022/11/25 09:47:57;;;;;;;44.88;26.05;;;6.80;1.00;;;;;;5108599;28;20233;-82
2022/11/25 09:50:36;;;;;;;57.53;27.75;;;6.90;1.00;;;;;;5098306;28;20264;-82
2022/11/25 09:53:20;;;;;;;43.92;26.42;;;6.90;1.00;;;;;;5103885;28;20248;-80
2022/11/25 09:55:51;;;;;;;49.05;24.20;;;7.00;1.00;;;;;;5106067;28;20234;-79
2022/11/25 09:58:30;;;;;;;35.15;24.83;;;7.00;1.00;;;;;;5102822;28;20583;-82
2022/11/25 10:00:59;;;;;;;40.17;25.15;;;7.00;1.00;;;;;;5102948;28;20277;-80
2022/11/25 10:03:34;;;;;;;45.90;27.67;;;6.90;1.00;;;;;;5105486;28;20238;-80
2022/11/25 10:06:06;;;;;;;39.67;25.38;;;6.90;1.00;;;;;;5108854;28;20234;-80
2022/11/25 10:08:48;;;;;;;44.08;27.55;;;7.00;1.00;;;;;;5100761;28;20990;-81
2022/11/25 10:11:28;;;;;;;45.88;28.17;;;7.30;1.00;;;;;;5105464;28;20237;-81
2022/11/25 10:14:03;;;;;;;43.63;27.10;;;7.20;1.00;;;;;;5103996;28;20280;-79
2022/11/25 10:16:45;;;;;;;42.08;29.50;;;7.20;1.00;;;;;;5103968;28;20230;-79
2022/11/25 10:19:24;;;;;;;38.42;25.17;;;7.30;1.00;;;;;;5108582;28;20397;-81
2022/11/25 10:22:06;;;;;;;37.00;26.10;;;7.30;1.00;;;;;;5104409;28;20237;-81
2022/11/25 10:24:40;;;;;;;36.85;24.90;;;7.10;1.00;;;;;;5103237;28;20237;-82
2022/11/25 10:27:23;;;;;;;37.95;23.05;;;7.00;1.00;;;;;;5106134;28;20278;-81
2022/11/25 10:30:05;;;;;;;32.67;24.33;;;7.00;1.00;;;;;;5104107;28;20244;-80
2022/11/25 10:32:41;;;;;;;35.40;25.40;;;7.10;1.00;;;;;;5106324;28;20249;-81
2022/11/25 10:35:22;;;;;;;36.70;25.17;;;7.20;1.00;;;;;;5110785;28;21242;-81
2022/11/25 10:37:54;;;;;;;34.90;23.67;;;7.30;1.00;;;;;;5108442;28;20230;-81
2022/11/25 10:40:28;;;;;;;34.38;23.25;;;7.40;1.00;;;;;;5104428;28;20242;-80
2022/11/25 10:42:55;;;;;;;37.42;22.35;;;7.20;1.00;;;;;;5098898;28;20238;-79
2022/11/25 10:45:32;;;;;;;34.55;27.45;;;7.10;1.00;;;;;;5104190;28;20955;-82
2022/11/25 10:48:20;;;;;;;34.53;24.00;;;7.00;1.00;;;;;;5104609;28;20231;-80
2022/11/25 10:51:13;;;;;;;33.20;22.98;;;7.00;1.00;;;;;;5107522;28;21107;-79
2022/11/25 10:53:41;;;;;;;29.92;23.02;;;7.10;1.00;;;;;;5105246;28;20237;-80
2022/11/25 10:56:18;;;;;;;34.20;22.55;;;7.00;1.00;;;;;;5104798;28;20237;-80
2022/11/25 10:58:46;;;;;;;35.45;22.85;;;6.90;1.00;;;;;;5100955;28;20812;-79
2022/11/25 11:01:17;;;;;;;28.27;20.88;;;7.10;1.00;;;;;;5099784;28;20218;-80
2022/11/25 11:03:46;;;;;;;28.92;20.30;;;7.20;1.00;;;;;;5105204;28;20242;-80
2022/11/25 11:06:36;;;;;;;24.42;18.70;;;7.30;1.00;;;;;;5110349;28;20256;-80
2022/11/25 11:09:54;;;;;;;;;;;;;;;;;;;;;
2022/11/25 11:15:23;;;;;;;25.95;19.60;;;7.70;1.00;;;;;;5100685;28;20233;-80
2022/11/25 11:21:02;;;;;;;27.77;20.13;;;7.80;1.00;;;;;;5061718;28;20323;-79
2022/11/25 11:27:23;;;;;;;31.98;21.63;;;7.30;1.00;;;;;;5038365;28;20325;-80
2022/11/25 11:30:14;;;;;;;27.88;19.92;;;7.20;1.00;;;;;;5093707;28;20241;-81
2022/11/25 11:33:02;;;;;;;31.25;20.75;;;7.10;1.00;;;;;;5103534;28;20224;-80
2022/11/25 11:35:46;;;;;;;32.70;22.83;;;7.30;1.00;;;;;;5098632;28;20242;-80
2022/11/25 11:38:24;;;;;;;29.42;21.00;;;7.40;1.00;;;;;;5098413;28;20238;-80
2022/11/25 11:40:57;;;;;;;28.63;21.73;;;7.50;1.00;;;;;;5100957;28;20320;-80
2022/11/25 11:43:47;;;;;;;27.83;20.55;;;7.50;1.00;;;;;;5096949;28;20237;-80
2022/11/25 11:46:28;;;;;;;31.60;22.40;;;7.70;1.00;;;;;;5093033;28;20273;-81
2022/11/25 11:49:17;;;;;;;32.60;23.63;;;7.80;1.00;;;;;;5100541;28;20339;-82
2022/11/25 11:51:53;;;;;;;27.33;20.45;;;7.70;1.00;;;;;;5091215;28;20242;-82
2022/11/25 11:54:33;;;;;;;32.60;21.77;;;7.70;1.00;;;;;;5092950;28;21060;-80
2022/11/25 11:57:07;;;;;;;36.63;23.73;;;7.80;1.00;;;;;;5100441;28;20243;-79
2022/11/25 11:59:55;;;;;;;29.25;20.23;;;7.80;1.00;;;;;;5101042;28;20998;-80
2022/11/25 12:02:52;;;;;;;32.33;21.58;;;7.80;1.00;;;;;;5092271;28;20258;-81
2022/11/25 12:05:22;;;;;;;34.60;21.95;;;7.80;1.00;;;;;;5094886;28;20235;-81
2022/11/25 12:07:59;;;;;;;28.58;20.95;;;7.80;1.00;;;;;;5101618;28;20218;-80
2022/11/25 12:10:31;;;;;;;33.13;22.17;;;7.80;1.00;;;;;;5096817;28;20258;-81
2022/11/25 12:13:08;;;;;;;33.03;21.80;;;7.70;1.00;;;;;;5099594;28;20241;-80
2022/11/25 12:15:44;;;;;;;34.90;22.27;;;7.60;1.00;;;;;;5101925;28;20236;-81
2022/11/25 12:18:20;;;;;;;30.73;22.40;;;7.50;1.00;;;;;;5099118;28;20237;-81
2022/11/25 12:20:53;;;;;;;26.95;20.20;;;7.50;1.00;;;;;;5102049;28;20243;-81
2022/11/25 12:23:27;;;;;;;27.25;19.70;;;7.40;1.00;;;;;;5104281;28;21053;-81
2022/11/25 12:26:01;;;;;;;26.63;21.55;;;7.40;1.00;;;;;;5106293;28;20242;-81
2022/11/25 12:28:35;;;;;;;28.60;20.08;;;7.30;1.00;;;;;;5059407;28;20234;-82
2022/11/25 12:31:24;;;;;;;26.75;19.95;;;7.30;1.00;;;;;;5090447;28;20441;-81
2022/11/25 12:34:07;;;;;;;29.83;20.95;;;7.30;1.00;;;;;;5063662;28;20235;-82
2022/11/25 12:39:55;;;;;;;28.70;20.70;;;7.10;1.00;;;;;;5066692;28;20211;-83
2022/11/25 12:42:32;;;;;;;25.83;19.73;;;6.90;1.00;;;;;;5098073;28;20230;-82
2022/11/25 12:45:09;;;;;;;29.13;21.23;;;6.90;1.00;;;;;;5101450;28;20249;-78
2022/11/25 12:47:36;;;;;;;34.72;21.85;;;6.90;1.00;;;;;;5103338;28;20232;-81
2022/11/25 12:50:16;;;;;;;29.48;21.38;;;7.00;1.00;;;;;;5101486;28;20275;-81
2022/11/25 12:52:54;;;;;;;30.42;21.67;;;7.10;1.00;;;;;;5109475;27;20598;-80
2022/11/25 12:55:26;;;;;;;30.88;22.48;;;7.10;1.00;;;;;;5103647;28;20257;-81
2022/11/25 12:58:19;;;;;;;31.27;23.23;;;7.20;1.00;;;;;;5100532;28;20238;-81
2022/11/25 13:01:25;;;;;;;35.83;23.70;;;7.00;1.00;;;;;;5078820;28;20257;-82
2022/11/25 13:04:27;;;;;;;32.58;22.70;;;6.90;1.00;;;;;;5108585;28;20229;-80
2022/11/25 13:07:31;;;;;;;35.05;23.52;;;6.90;1.00;;;;;;5108419;28;20231;-80
2022/11/25 13:10:51;;;;;;;35.47;23.50;;;7.00;1.00;;;;;;5108563;28;20256;-80
2022/11/25 13:13:34;;;;;;;33.00;24.95;;;7.00;1.00;;;;;;5107261;28;20222;-81
2022/11/25 13:16:15;;;;;;;34.65;22.58;;;7.20;1.00;;;;;;5110822;28;20295;-79
2022/11/25 13:18:46;;;;;;;37.28;23.23;;;7.30;1.00;;;;;;5104094;28;20221;-82
2022/11/25 13:21:14;;;;;;;32.40;22.60;;;7.40;1.00;;;;;;5109156;28;20239;-79
2022/11/25 13:24:00;;;;;;;32.17;22.00;;;7.10;1.00;;;;;;5112534;28;20242;-81
2022/11/25 13:26:51;;;;;;;34.60;24.45;;;7.00;1.00;;;;;;5107871;28;20241;-82
2022/11/25 13:32:46;;;;;;;32.33;21.42;;;7.10;1.00;;;;;;5102308;28;20237;-79
2022/11/25 13:35:46;;;;;;;33.15;22.20;;;7.00;1.00;;;;;;5108012;28;20296;-81
2022/11/25 13:39:04;;;;;;;31.70;21.95;;;7.00;1.00;;;;;;5075869;28;20239;-82
2022/11/25 13:42:13;;;;;;;32.15;21.88;;;7.10;1.00;;;;;;5080394;28;20217;-81
2022/11/25 13:44:52;;;;;;;33.22;22.05;;;7.20;1.00;;;;;;5097854;28;20240;-81
2022/11/25 13:47:42;;;;;;;38.55;27.75;;;7.20;1.00;;;;;;5087446;28;20236;-82
2022/11/25 13:50:22;;;;;;;33.38;23.90;;;7.40;1.00;;;;;;5088893;28;20247;-81
2022/11/25 13:53:01;;;;;;;38.63;24.27;;;7.40;1.00;;;;;;5077295;28;20272;-81
2022/11/25 13:55:37;;;;;;;36.65;25.20;;;7.40;1.00;;;;;;5087557;28;20276;-82
2022/11/25 13:58:21;;;;;;;33.92;23.00;;;7.30;1.00;;;;;;5087263;28;20246;-81
2022/11/25 14:01:23;;;;;;;36.47;23.73;;;7.30;1.00;;;;;;5082251;28;20251;-81
2022/11/25 14:07:16;;;;;;;29.40;22.63;;;7.40;1.00;;;;;;5083933;28;20235;-84
2022/11/25 14:10:07;;;;;;;37.33;23.63;;;7.50;1.00;;;;;;5084636;28;20278;-82